createdAt,value
2023-01-15T00:01:07.124Z,2.70
2023-01-15T00:03:35.177Z,2.70
2023-01-15T00:06:04.209Z,2.70
2023-01-15T00:08:33.602Z,2.70
2023-01-15T00:11:04.690Z,2.70
2023-01-15T00:13:32.746Z,2.60
2023-01-15T00:16:04.991Z,2.70
2023-01-15T00:18:33.079Z,2.70
2023-01-15T00:21:01.732Z,2.60
2023-01-15T00:23:47.541Z,2.60
2023-01-15T00:26:35.322Z,2.60
2023-01-15T00:29:03.294Z,2.70
2023-01-15T00:31:32.205Z,2.70
2023-01-15T00:34:00.209Z,2.70
2023-01-15T00:36:31.354Z,2.70
2023-01-15T00:38:59.336Z,2.70
2023-01-15T00:41:28.654Z,2.70
2023-01-15T00:43:57.095Z,2.70
2023-01-15T00:46:25.307Z,2.70
2023-01-15T00:48:53.259Z,2.70
2023-01-15T00:51:21.212Z,2.80
2023-01-15T00:53:49.172Z,2.80
2023-01-15T00:56:17.110Z,2.80
2023-01-15T00:58:47.803Z,2.90
2023-01-15T01:01:16.307Z,2.90
2023-01-15T01:03:48.742Z,2.90
2023-01-15T01:06:18.406Z,2.90
2023-01-15T01:08:46.418Z,2.90
2023-01-15T01:11:16.054Z,2.90
2023-01-15T01:13:44.900Z,2.90
2023-01-15T01:16:37.381Z,2.90
2023-01-15T01:19:07.504Z,2.90
2023-01-15T01:21:35.587Z,2.90
2023-01-15T01:24:03.750Z,2.90
2023-01-15T01:26:32.413Z,3.00
2023-01-15T01:29:00.416Z,2.90
2023-01-15T01:31:28.625Z,2.90
2023-01-15T01:33:59.787Z,2.90
2023-01-15T01:36:29.392Z,3.00
2023-01-15T01:38:57.640Z,3.00
2023-01-15T01:41:26.521Z,3.00
2023-01-15T01:43:57.721Z,3.00
2023-01-15T01:46:26.899Z,3.00
2023-01-15T01:49:00.772Z,3.00
2023-01-15T01:51:34.949Z,3.00
2023-01-15T01:54:04.421Z,3.00
2023-01-15T01:56:35.826Z,3.00
2023-01-15T01:59:05.358Z,3.00
2023-01-15T02:01:36.011Z,3.00
2023-01-15T02:04:08.773Z,3.00
2023-01-15T02:06:38.101Z,3.00
2023-01-15T02:09:06.821Z,3.10
2023-01-15T02:11:35.960Z,3.00
2023-01-15T02:14:10.758Z,3.00
2023-01-15T02:16:43.137Z,3.00
2023-01-15T02:19:23.768Z,3.00
2023-01-15T02:22:02.357Z,3.00
2023-01-15T02:24:38.681Z,3.10
2023-01-15T02:27:13.289Z,3.00
2023-01-15T02:29:49.550Z,3.10
2023-01-15T02:32:24.934Z,3.00
2023-01-15T02:34:56.913Z,3.00
2023-01-15T02:37:29.078Z,3.10
2023-01-15T02:40:00.249Z,3.00
2023-01-15T02:42:32.304Z,3.00
2023-01-15T02:45:03.639Z,3.10
2023-01-15T02:47:36.889Z,3.10
2023-01-15T02:50:08.418Z,3.10
2023-01-15T02:52:39.880Z,3.10
2023-01-15T02:55:12.323Z,3.20
2023-01-15T02:57:47.685Z,3.20
2023-01-15T03:00:18.746Z,3.30
2023-01-15T03:02:52.329Z,3.30
2023-01-15T03:05:25.553Z,3.30
2023-01-15T03:07:56.277Z,3.30
2023-01-15T03:10:31.461Z,3.40
2023-01-15T03:13:04.083Z,3.50
2023-01-15T03:15:58.466Z,3.50
2023-01-15T03:18:30.164Z,3.60
2023-01-15T03:21:04.741Z,3.70
2023-01-15T03:23:36.671Z,3.70
2023-01-15T03:26:06.402Z,3.70
2023-01-15T03:28:39.161Z,3.70
2023-01-15T03:31:07.438Z,3.70
2023-01-15T03:33:36.206Z,3.70
2023-01-15T03:36:04.419Z,3.70
2023-01-15T03:38:35.332Z,3.70
2023-01-15T03:41:16.117Z,3.80
2023-01-15T03:43:56.591Z,3.80
2023-01-15T03:46:50.390Z,3.90
2023-01-15T03:49:25.114Z,3.90
2023-01-15T03:52:02.471Z,4.00
2023-01-15T03:54:40.178Z,4.10
2023-01-15T03:57:14.791Z,4.10
2023-01-15T03:59:50.973Z,4.20
2023-01-15T04:02:21.772Z,4.30
2023-01-15T04:04:51.754Z,4.40
2023-01-15T04:07:20.653Z,4.40
2023-01-15T04:09:49.185Z,4.50
2023-01-15T04:12:17.167Z,4.60
2023-01-15T04:14:46.696Z,4.60
2023-01-15T04:17:14.662Z,4.70
2023-01-15T04:19:43.679Z,4.80
2023-01-15T04:22:12.836Z,4.80
2023-01-15T04:24:40.834Z,4.90
2023-01-15T04:27:08.812Z,5.00
2023-01-15T04:29:36.776Z,5.00
2023-01-15T04:32:06.655Z,5.10
2023-01-15T04:34:35.861Z,5.10
2023-01-15T04:37:03.880Z,5.20
2023-01-15T04:39:31.955Z,5.20
2023-01-15T04:42:19.898Z,5.20
2023-01-15T04:44:48.155Z,5.20
2023-01-15T04:47:17.471Z,5.20
2023-01-15T04:49:45.454Z,5.30
2023-01-15T04:52:13.468Z,5.20
2023-01-15T04:54:41.426Z,5.30
2023-01-15T04:57:09.463Z,5.30
2023-01-15T04:59:37.436Z,5.40
2023-01-15T05:02:06.845Z,5.40
2023-01-15T05:04:36.630Z,5.40
2023-01-15T05:07:06.105Z,5.40
2023-01-15T05:09:34.238Z,5.40
2023-01-15T05:12:02.393Z,5.40
2023-01-15T05:14:30.506Z,5.40
2023-01-15T05:16:58.536Z,5.40
2023-01-15T05:19:26.545Z,5.30
2023-01-15T05:21:55.861Z,5.30
2023-01-15T05:24:24.026Z,5.30
2023-01-15T05:26:52.075Z,5.30
2023-01-15T05:29:20.062Z,5.30
2023-01-15T05:31:48.350Z,5.30
2023-01-15T05:34:16.449Z,5.30
2023-01-15T05:36:44.413Z,5.30
2023-01-15T05:39:16.653Z,5.20
2023-01-15T05:41:50.890Z,5.20
2023-01-15T05:44:22.342Z,5.20
2023-01-15T05:46:51.616Z,5.20
2023-01-15T05:49:21.661Z,5.20
2023-01-15T05:51:50.391Z,5.20
2023-01-15T05:54:22.858Z,5.10
2023-01-15T05:56:50.901Z,5.10
2023-01-15T05:59:21.338Z,5.10
2023-01-15T06:01:49.612Z,5.10
2023-01-15T06:04:21.070Z,5.00
2023-01-15T06:06:49.866Z,5.00
2023-01-15T06:09:23.019Z,5.00
2023-01-15T06:11:51.898Z,5.00
2023-01-15T06:14:19.886Z,5.00
2023-01-15T06:16:47.942Z,4.90
2023-01-15T06:19:16.298Z,4.90
2023-01-15T06:21:44.413Z,4.90
2023-01-15T06:24:12.710Z,4.90
2023-01-15T06:26:42.042Z,4.90
2023-01-15T06:29:10.037Z,4.90
2023-01-15T06:31:38.065Z,5.00
2023-01-15T06:34:06.189Z,4.90
2023-01-15T06:36:37.347Z,5.00
2023-01-15T06:39:05.619Z,4.90
2023-01-15T06:41:51.318Z,5.00
2023-01-15T06:44:38.002Z,5.00
2023-01-15T06:47:24.756Z,5.00
2023-01-15T06:49:54.963Z,5.00
2023-01-15T06:52:23.649Z,5.00
2023-01-15T06:54:51.938Z,5.00
2023-01-15T06:57:20.176Z,5.00
2023-01-15T06:59:50.129Z,5.00
2023-01-15T07:02:18.846Z,5.00
2023-01-15T07:04:47.829Z,5.00
2023-01-15T07:07:16.283Z,5.00
2023-01-15T07:09:44.247Z,5.00
2023-01-15T07:12:12.927Z,5.00
2023-01-15T07:14:41.034Z,5.00
2023-01-15T07:17:10.478Z,5.00
2023-01-15T07:19:39.026Z,5.00
2023-01-15T07:22:07.464Z,5.10
2023-01-15T07:24:35.727Z,5.10
2023-01-15T07:27:03.755Z,5.10
2023-01-15T07:29:31.847Z,5.10
2023-01-15T07:31:59.937Z,5.10
2023-01-15T07:34:31.725Z,5.10
2023-01-15T07:36:59.708Z,5.20
2023-01-15T07:39:31.803Z,5.20
2023-01-15T07:42:17.192Z,5.10
2023-01-15T07:45:02.878Z,5.20
2023-01-15T07:47:48.389Z,5.20
2023-01-15T07:50:19.004Z,5.20
2023-01-15T07:52:47.497Z,5.20
2023-01-15T07:55:15.577Z,5.30
2023-01-15T07:57:44.095Z,5.30
2023-01-15T08:00:15.413Z,5.40
2023-01-15T08:02:44.300Z,5.40
2023-01-15T08:05:12.856Z,5.50
2023-01-15T08:07:43.269Z,5.50
2023-01-15T08:10:15.988Z,5.60
2023-01-15T08:13:01.610Z,5.70
2023-01-15T08:15:33.057Z,5.80
2023-01-15T08:18:01.040Z,5.90
2023-01-15T08:20:29.058Z,6.00
2023-01-15T08:22:58.452Z,6.10
2023-01-15T08:25:26.786Z,6.20
2023-01-15T08:27:57.742Z,6.20
2023-01-15T08:30:26.852Z,6.20
2023-01-15T08:32:59.829Z,6.30
2023-01-15T08:35:27.960Z,6.30
2023-01-15T08:37:55.932Z,6.30
2023-01-15T08:40:25.322Z,6.30
2023-01-15T08:42:54.718Z,6.30
2023-01-15T08:45:23.683Z,6.30
2023-01-15T08:47:55.402Z,6.40
2023-01-15T08:50:23.627Z,6.40
2023-01-15T08:52:51.615Z,6.40
2023-01-15T08:55:19.597Z,6.40
2023-01-15T08:57:48.961Z,6.50
2023-01-15T09:00:17.737Z,6.50
2023-01-15T09:02:47.702Z,6.50
2023-01-15T09:05:17.363Z,6.50
2023-01-15T09:07:45.367Z,6.60
2023-01-15T09:10:13.636Z,6.60
2023-01-15T09:12:41.602Z,6.60
2023-01-15T09:15:12.115Z,6.60
2023-01-15T09:17:40.888Z,6.60
2023-01-15T09:20:12.548Z,6.70
2023-01-15T09:22:40.551Z,6.70
2023-01-15T09:25:09.613Z,6.70
2023-01-15T09:27:37.888Z,6.70
2023-01-15T09:30:07.156Z,6.70
2023-01-15T09:32:36.625Z,6.70
2023-01-15T09:35:04.727Z,6.80
2023-01-15T09:37:32.853Z,6.80
2023-01-15T09:40:02.304Z,6.90
2023-01-15T09:42:44.581Z,7.00
2023-01-15T09:45:21.573Z,7.00
2023-01-15T09:48:08.442Z,7.00
2023-01-15T09:50:49.569Z,7.00
2023-01-15T09:53:48.049Z,7.00
2023-01-15T09:56:22.349Z,7.00
2023-01-15T09:58:51.932Z,7.10
2023-01-15T10:01:24.572Z,7.20
2023-01-15T10:04:00.752Z,7.20
2023-01-15T10:06:30.535Z,7.30
2023-01-15T10:09:05.676Z,7.30
2023-01-15T10:11:57.355Z,7.30
2023-01-15T10:14:39.185Z,7.40
2023-01-15T10:17:22.671Z,7.40
2023-01-15T10:19:52.948Z,7.40
2023-01-15T10:22:37.487Z,7.40
2023-01-15T10:25:15.764Z,7.40
2023-01-15T10:27:48.580Z,7.50
2023-01-15T10:30:18.651Z,7.50
2023-01-15T10:33:01.396Z,7.60
2023-01-15T10:35:41.380Z,7.70
2023-01-15T10:38:17.558Z,7.80
2023-01-15T10:41:03.293Z,7.90
2023-01-15T10:43:43.325Z,8.00
2023-01-15T10:46:16.227Z,8.00
2023-01-15T10:48:46.967Z,8.10
2023-01-15T10:51:19.347Z,8.10
2023-01-15T10:53:52.218Z,8.10
2023-01-15T10:56:30.448Z,8.20
2023-01-15T10:59:05.407Z,8.20
2023-01-15T11:01:36.748Z,8.30
2023-01-15T11:04:05.096Z,8.30
2023-01-15T11:06:35.088Z,8.30
2023-01-15T11:09:09.645Z,8.40
2023-01-15T11:12:01.985Z,8.40
2023-01-15T11:14:55.400Z,8.40
2023-01-15T11:17:44.239Z,8.50
2023-01-15T11:20:21.473Z,8.50
2023-01-15T11:22:50.977Z,8.40
2023-01-15T11:25:28.397Z,8.40
2023-01-15T11:27:56.750Z,8.40
2023-01-15T11:30:31.844Z,8.30
2023-01-15T11:33:04.885Z,8.30
2023-01-15T11:35:34.953Z,8.30
2023-01-15T11:38:06.625Z,8.30
2023-01-15T11:40:35.052Z,8.20
2023-01-15T11:43:20.392Z,8.20
2023-01-15T11:46:07.363Z,8.20
2023-01-15T11:49:01.368Z,8.20
2023-01-15T11:51:30.002Z,8.10
2023-01-15T11:54:04.494Z,8.10
2023-01-15T11:56:34.664Z,8.10
2023-01-15T11:59:04.983Z,8.00
2023-01-15T12:01:35.980Z,8.00
2023-01-15T12:04:26.909Z,7.90
2023-01-15T12:06:55.361Z,7.90
2023-01-15T12:09:37.484Z,7.90
2023-01-15T12:12:17.269Z,7.80
2023-01-15T12:15:04.069Z,7.80
2023-01-15T12:17:50.313Z,7.80
2023-01-15T12:20:25.383Z,7.80
2023-01-15T12:23:09.060Z,7.70
2023-01-15T12:25:49.702Z,7.70
2023-01-15T12:28:24.413Z,7.60
2023-01-15T12:31:01.396Z,7.60
2023-01-15T12:33:42.050Z,7.60
2023-01-15T12:36:17.720Z,7.60
2023-01-15T12:38:51.330Z,7.50
2023-01-15T12:41:47.200Z,7.50
2023-01-15T12:44:38.502Z,7.50
2023-01-15T12:47:11.570Z,7.50
2023-01-15T12:49:46.028Z,7.50
2023-01-15T12:52:20.777Z,7.50
2023-01-15T12:54:57.098Z,7.50
2023-01-15T12:57:35.947Z,7.50
2023-01-15T13:00:12.415Z,7.50
2023-01-15T13:02:52.331Z,7.50
2023-01-15T13:05:22.432Z,7.50
2023-01-15T13:07:57.161Z,7.50
2023-01-15T13:10:28.119Z,7.50
2023-01-15T13:13:06.288Z,7.50
2023-01-15T13:15:40.211Z,7.50
2023-01-15T13:18:18.873Z,7.50
2023-01-15T13:20:51.165Z,7.50
2023-01-15T13:23:37.425Z,7.50
2023-01-15T13:26:16.182Z,7.50
2023-01-15T13:28:58.712Z,7.50
2023-01-15T13:31:52.726Z,7.50
2023-01-15T13:34:30.465Z,7.50
2023-01-15T13:37:03.984Z,7.50
2023-01-15T13:39:38.638Z,7.50
2023-01-15T13:42:25.510Z,7.40
2023-01-15T13:44:58.232Z,7.40
2023-01-15T13:47:28.169Z,7.40
2023-01-15T13:49:59.689Z,7.30
2023-01-15T13:52:31.293Z,7.30
2023-01-15T13:55:01.894Z,7.30
2023-01-15T13:57:35.424Z,7.20
2023-01-15T14:00:06.795Z,7.30
2023-01-15T14:02:38.823Z,7.20
2023-01-15T14:05:30.828Z,7.20
2023-01-15T14:07:59.233Z,7.20
2023-01-15T14:10:37.950Z,7.20
2023-01-15T14:13:27.793Z,7.20
2023-01-15T14:16:12.343Z,7.20
2023-01-15T14:19:10.049Z,7.20
2023-01-15T14:21:48.654Z,7.10
2023-01-15T14:24:46.634Z,7.10
2023-01-15T14:27:20.632Z,7.10
2023-01-15T14:30:04.668Z,7.10
2023-01-15T14:32:47.699Z,7.10
2023-01-15T14:35:21.634Z,7.10
2023-01-15T14:37:53.283Z,7.10
2023-01-15T14:40:24.079Z,7.00
2023-01-15T14:43:04.926Z,7.10
2023-01-15T14:45:36.217Z,7.00
2023-01-15T14:48:07.713Z,7.00
2023-01-15T14:50:42.108Z,7.00
2023-01-15T14:53:38.706Z,7.00
2023-01-15T14:56:15.637Z,7.00
2023-01-15T14:58:50.930Z,7.00
2023-01-15T15:01:28.958Z,6.90
2023-01-15T15:04:02.800Z,6.90
2023-01-15T15:06:31.792Z,6.90
2023-01-15T15:09:04.730Z,7.00
2023-01-15T15:11:57.194Z,7.00
2023-01-15T15:14:29.836Z,7.00
2023-01-15T15:17:01.873Z,7.10
2023-01-15T15:19:36.763Z,7.10
2023-01-15T15:22:07.973Z,7.10
2023-01-15T15:24:38.299Z,7.20
2023-01-15T15:27:18.352Z,7.20
2023-01-15T15:29:49.298Z,7.20
2023-01-15T15:32:20.877Z,7.20
2023-01-15T15:34:52.525Z,7.20
2023-01-15T15:37:24.413Z,7.20
2023-01-15T15:39:57.409Z,7.20
2023-01-15T15:42:58.874Z,7.30
2023-01-15T15:45:48.992Z,7.30
2023-01-15T15:48:41.147Z,7.20
2023-01-15T15:51:35.292Z,7.20
2023-01-15T15:54:12.393Z,7.30
2023-01-15T15:56:45.404Z,7.30
2023-01-15T15:59:20.143Z,7.30
2023-01-15T16:01:48.401Z,7.30
2023-01-15T16:04:18.928Z,7.30
2023-01-15T16:06:50.052Z,7.30
2023-01-15T16:09:23.022Z,7.30
2023-01-15T16:11:53.296Z,7.30
2023-01-15T16:14:22.750Z,7.20
2023-01-15T16:16:51.960Z,7.20
2023-01-15T16:19:25.483Z,7.20
2023-01-15T16:21:55.128Z,7.20
2023-01-15T16:24:28.383Z,7.20
2023-01-15T16:27:02.785Z,7.20
2023-01-15T16:29:34.724Z,7.20
2023-01-15T16:32:10.323Z,7.20
2023-01-15T16:34:38.554Z,7.20
2023-01-15T16:37:24.730Z,7.20
2023-01-15T16:39:54.322Z,7.20
2023-01-15T16:42:28.334Z,7.20
2023-01-15T16:44:59.403Z,7.10
2023-01-15T16:47:31.311Z,7.10
2023-01-15T16:50:31.250Z,7.10
2023-01-15T16:53:02.116Z,7.10
2023-01-15T16:55:45.087Z,7.10
2023-01-15T16:58:21.099Z,7.10
2023-01-15T17:00:58.197Z,7.10
2023-01-15T17:03:27.983Z,7.00
2023-01-15T17:05:59.617Z,7.00
2023-01-15T17:08:37.143Z,7.00
2023-01-15T17:11:06.896Z,7.00
2023-01-15T17:13:37.289Z,6.90
2023-01-15T17:16:15.700Z,6.90
2023-01-15T17:18:44.081Z,6.90
2023-01-15T17:21:18.130Z,6.90
2023-01-15T17:23:48.333Z,6.80
2023-01-15T17:26:19.890Z,6.80
2023-01-15T17:28:48.685Z,6.80
2023-01-15T17:31:30.411Z,6.70
2023-01-15T17:33:59.321Z,6.70
2023-01-15T17:36:32.735Z,6.70
2023-01-15T17:39:02.082Z,6.60
2023-01-15T17:41:31.680Z,6.60
2023-01-15T17:43:59.713Z,6.50
2023-01-15T17:46:29.530Z,6.50
2023-01-15T17:48:57.558Z,6.50
2023-01-15T17:51:26.288Z,6.50
2023-01-15T17:53:54.438Z,6.50
2023-01-15T17:56:41.085Z,6.50
2023-01-15T17:59:27.553Z,6.40
2023-01-15T18:02:16.229Z,6.50
2023-01-15T18:05:05.405Z,6.50
2023-01-15T18:07:37.536Z,6.40
2023-01-15T18:10:06.772Z,6.40
2023-01-15T18:12:36.450Z,6.40
2023-01-15T18:15:13.800Z,6.30
2023-01-15T18:17:41.770Z,6.40
2023-01-15T18:20:11.139Z,6.40
2023-01-15T18:22:39.109Z,6.40
2023-01-15T18:25:10.528Z,6.30
2023-01-15T18:27:43.474Z,6.30
2023-01-15T18:30:13.204Z,6.30
2023-01-15T18:32:41.695Z,6.30
2023-01-15T18:35:11.825Z,6.20
2023-01-15T18:37:39.824Z,6.20
2023-01-15T18:40:09.320Z,6.20
2023-01-15T18:42:58.403Z,6.10
2023-01-15T18:45:43.801Z,6.10
2023-01-15T18:48:11.837Z,6.10
2023-01-15T18:50:39.815Z,6.00
2023-01-15T18:53:08.624Z,6.00
2023-01-15T18:55:39.083Z,6.00
2023-01-15T18:58:09.748Z,6.00
2023-01-15T19:00:37.820Z,5.90
2023-01-15T19:03:07.288Z,5.90
2023-01-15T19:05:35.394Z,5.90
2023-01-15T19:08:05.205Z,5.90
2023-01-15T19:10:33.437Z,5.90
2023-01-15T19:13:03.043Z,5.90
2023-01-15T19:15:50.225Z,5.80
2023-01-15T19:18:35.725Z,5.80
2023-01-15T19:21:08.121Z,5.80
2023-01-15T19:23:38.984Z,5.80
2023-01-15T19:26:10.105Z,5.70
2023-01-15T19:28:38.356Z,5.70
2023-01-15T19:31:27.968Z,5.70
2023-01-15T19:34:31.738Z,5.70
2023-01-15T19:36:50.481Z,5.60
2023-01-15T19:39:21.044Z,5.60
2023-01-15T19:42:12.349Z,5.60
2023-01-15T19:44:57.948Z,5.60
2023-01-15T19:47:49.236Z,5.60
2023-01-15T19:50:20.642Z,5.60
2023-01-15T19:52:54.052Z,5.60
2023-01-15T19:55:26.606Z,5.60
2023-01-15T19:57:58.791Z,5.60
2023-01-15T20:00:27.711Z,5.50
2023-01-15T20:02:58.828Z,5.50
2023-01-15T20:05:29.110Z,5.50
2023-01-15T20:07:59.223Z,5.50
2023-01-15T20:10:29.936Z,5.50
2023-01-15T20:13:15.651Z,5.40
2023-01-15T20:15:56.277Z,5.40
2023-01-15T20:18:27.685Z,5.40
2023-01-15T20:20:56.070Z,5.40
2023-01-15T20:23:24.246Z,5.40
2023-01-15T20:25:56.188Z,5.40
2023-01-15T20:28:30.037Z,5.40
2023-01-15T20:30:58.296Z,5.40
2023-01-15T20:33:31.556Z,5.40
2023-01-15T20:36:08.058Z,5.40
2023-01-15T20:38:39.161Z,5.40
2023-01-15T20:41:28.871Z,5.40
2023-01-15T20:44:16.933Z,5.30
2023-01-15T20:46:50.540Z,5.40
2023-01-15T20:49:25.018Z,5.40
2023-01-15T20:51:53.815Z,5.40
2023-01-15T20:54:22.112Z,5.30
2023-01-15T20:56:55.794Z,5.30
2023-01-15T20:59:23.868Z,5.30
2023-01-15T21:01:54.726Z,5.30
2023-01-15T21:04:24.781Z,5.30
2023-01-15T21:06:52.963Z,5.30
2023-01-15T21:09:20.967Z,5.30
2023-01-15T21:11:52.048Z,5.30
2023-01-15T21:14:20.046Z,5.20
2023-01-15T21:16:51.600Z,5.30
2023-01-15T21:19:19.679Z,5.20
2023-01-15T21:21:49.080Z,5.20
2023-01-15T21:24:17.114Z,5.20
2023-01-15T21:26:47.241Z,5.20
2023-01-15T21:29:15.696Z,5.20
2023-01-15T21:31:44.537Z,5.20
2023-01-15T21:34:12.925Z,5.20
2023-01-15T21:36:40.898Z,5.20
2023-01-15T21:39:12.527Z,5.20
2023-01-15T21:41:57.829Z,5.10
2023-01-15T21:44:32.305Z,5.20
2023-01-15T21:47:02.073Z,5.10
2023-01-15T21:49:32.318Z,5.10
2023-01-15T21:52:00.904Z,5.10
2023-01-15T21:54:31.170Z,5.10
2023-01-15T21:57:00.047Z,5.10
2023-01-15T21:59:28.555Z,5.00
2023-01-15T22:01:57.731Z,5.10
2023-01-15T22:04:28.468Z,5.00
2023-01-15T22:06:59.971Z,5.00
2023-01-15T22:09:32.085Z,5.00
2023-01-15T22:12:00.060Z,5.00
2023-01-15T22:14:29.359Z,5.00
2023-01-15T22:16:59.174Z,5.00
2023-01-15T22:19:28.710Z,4.90
2023-01-15T22:21:58.238Z,4.90
2023-01-15T22:24:30.607Z,4.90
2023-01-15T22:27:02.403Z,4.90
2023-01-15T22:29:32.808Z,4.90
2023-01-15T22:32:01.232Z,4.90
2023-01-15T22:34:29.841Z,4.90
2023-01-15T22:36:57.938Z,4.90
2023-01-15T22:39:27.074Z,4.90
2023-01-15T22:42:12.668Z,4.90
2023-01-15T22:44:43.405Z,4.90
2023-01-15T22:47:12.105Z,4.80
2023-01-15T22:49:40.096Z,4.80
2023-01-15T22:52:08.367Z,4.80
2023-01-15T22:54:36.761Z,4.80
2023-01-15T22:57:05.409Z,4.80
2023-01-15T22:59:33.410Z,4.80
2023-01-15T23:02:02.913Z,4.80
2023-01-15T23:04:31.160Z,4.80
2023-01-15T23:06:59.204Z,4.70
2023-01-15T23:09:27.221Z,4.70
2023-01-15T23:11:55.398Z,4.70
2023-01-15T23:14:23.391Z,4.70
2023-01-15T23:16:51.554Z,4.70
2023-01-15T23:19:21.308Z,4.70
2023-01-15T23:21:49.315Z,4.70
2023-01-15T23:24:17.843Z,4.70
2023-01-15T23:26:45.835Z,4.70
2023-01-15T23:29:13.803Z,4.70
2023-01-15T23:31:41.824Z,4.70
2023-01-15T23:34:10.562Z,4.70
2023-01-15T23:36:40.188Z,4.70
2023-01-15T23:39:08.372Z,4.70
2023-01-15T23:41:54.035Z,4.70
2023-01-15T23:44:40.396Z,4.70
2023-01-15T23:47:11.090Z,4.70
2023-01-15T23:49:39.085Z,4.70
2023-01-15T23:52:08.426Z,4.70
2023-01-15T23:54:36.365Z,4.70
2023-01-15T23:57:04.716Z,4.60
2023-01-15T23:59:32.678Z,4.60
